KHTS

Huntington/ Tri-State Airport

Airport
ICAO code
KHTS
IATA Code
HTS
Summary
ICAO Region
NAM
ICAO Territory
Location

Huntington, West Virginia

Serving
Huntington
Elevation
828 ft
Coordinates
38° 22' 6" N , 82° 33' 23" W
KCC
Airport WX
Cumulonimbus
Metar
KHTS 180351Z 00000KT 10SM CLR 27/23 A3011 RMK AO2 SLP186 T02720228

Tri-State Airport, also known as Milton J. Ferguson Field, is a public use airport located in Wayne County, 3 nm southwest of Huntington, West Virginia, USA.

Airport map

Aerial View

SKYbrary Partners:

Safety knowledge contributed by: